createdAt,value
2019-03-25T00:02:09.562Z,3.73
2019-03-25T00:04:37.975Z,4.10
2019-03-25T00:07:06.520Z,4.00
2019-03-25T00:09:34.938Z,4.17
2019-03-25T00:12:03.334Z,4.93
2019-03-25T00:14:31.759Z,4.07
2019-03-25T00:17:00.152Z,3.60
2019-03-25T00:19:28.546Z,4.40
2019-03-25T00:21:56.972Z,4.17
2019-03-25T00:24:25.435Z,3.60
2019-03-25T00:26:53.787Z,4.60
2019-03-25T00:29:22.185Z,3.63
2019-03-25T00:31:50.606Z,4.23
2019-03-25T00:34:18.991Z,4.53
2019-03-25T00:36:47.386Z,4.53
2019-03-25T00:39:15.797Z,4.20
2019-03-25T00:41:44.195Z,4.53
2019-03-25T00:44:12.622Z,4.20
2019-03-25T00:46:41.010Z,3.70
2019-03-25T00:49:09.504Z,3.83
2019-03-25T00:51:37.901Z,3.93
2019-03-25T00:54:06.371Z,3.93
2019-03-25T00:56:34.809Z,4.20
2019-03-25T00:59:03.262Z,4.20
2019-03-25T01:01:31.687Z,4.87
2019-03-25T01:04:00.114Z,4.23
2019-03-25T01:06:28.596Z,4.20
2019-03-25T01:08:57.013Z,3.90
2019-03-25T01:11:25.430Z,4.20
2019-03-25T01:13:53.841Z,4.00
2019-03-25T01:16:22.228Z,5.20
2019-03-25T01:18:50.645Z,4.17
2019-03-25T01:21:19.040Z,3.97
2019-03-25T01:23:47.508Z,3.87
2019-03-25T01:26:15.940Z,3.70
2019-03-25T01:28:44.419Z,5.00
2019-03-25T01:31:12.803Z,4.03
2019-03-25T01:33:42.829Z,4.40
2019-03-25T01:36:11.249Z,4.93
2019-03-25T01:38:39.652Z,5.03
2019-03-25T01:41:08.064Z,4.63
2019-03-25T01:43:36.468Z,5.10
2019-03-25T01:46:04.928Z,5.50
2019-03-25T01:48:33.364Z,4.83
2019-03-25T01:51:01.773Z,4.87
2019-03-25T01:53:30.190Z,4.93
2019-03-25T01:55:58.587Z,4.70
2019-03-25T01:58:27.066Z,4.80
2019-03-25T02:00:55.557Z,5.10
2019-03-25T02:03:25.000Z,5.63
2019-03-25T02:05:53.417Z,4.47
2019-03-25T02:08:21.838Z,4.77
2019-03-25T02:10:50.252Z,4.50
2019-03-25T02:13:18.647Z,5.47
2019-03-25T02:15:47.048Z,5.60
2019-03-25T02:18:15.468Z,5.20
2019-03-25T02:20:43.862Z,4.70
2019-03-25T02:23:12.356Z,4.73
2019-03-25T02:25:40.855Z,5.70
2019-03-25T02:28:09.249Z,4.83
2019-03-25T02:30:37.741Z,4.97
2019-03-25T02:33:06.128Z,4.87
2019-03-25T02:35:34.532Z,4.10
2019-03-25T02:38:03.053Z,5.50
2019-03-25T02:40:31.490Z,5.87
2019-03-25T02:42:59.890Z,5.13
2019-03-25T02:45:28.301Z,5.13
2019-03-25T02:47:56.688Z,5.53
2019-03-25T02:50:25.111Z,5.00
2019-03-25T02:52:53.507Z,5.03
2019-03-25T02:55:21.918Z,5.77
2019-03-25T02:57:50.391Z,5.47
2019-03-25T03:00:24.949Z,5.77
2019-03-25T03:02:53.366Z,5.07
2019-03-25T03:05:21.768Z,5.23
2019-03-25T03:07:50.172Z,4.93
2019-03-25T03:10:18.591Z,6.00
2019-03-25T03:12:46.999Z,5.70
2019-03-25T03:15:15.407Z,5.60
2019-03-25T03:17:45.360Z,5.63
2019-03-25T03:20:13.809Z,5.03
2019-03-25T03:22:42.229Z,5.67
2019-03-25T03:25:10.701Z,5.60
2019-03-25T03:27:39.126Z,5.60
2019-03-25T03:30:08.600Z,5.40
2019-03-25T03:32:36.983Z,6.33
2019-03-25T03:35:07.024Z,5.53
2019-03-25T03:37:35.528Z,5.33
2019-03-25T03:40:07.260Z,6.00
2019-03-25T03:42:35.663Z,5.70
2019-03-25T03:45:05.712Z,5.70
2019-03-25T03:47:34.110Z,5.93
2019-03-25T03:50:02.521Z,5.40
2019-03-25T03:52:31.060Z,5.30
2019-03-25T03:54:59.787Z,5.73
2019-03-25T03:57:29.340Z,5.63
2019-03-25T03:59:58.855Z,5.70
2019-03-25T04:02:27.277Z,5.50
2019-03-25T04:04:55.673Z,6.00
2019-03-25T04:07:24.129Z,5.33
2019-03-25T04:09:52.523Z,4.87
2019-03-25T04:12:20.949Z,4.90
2019-03-25T04:14:49.511Z,5.20
2019-03-25T04:17:17.907Z,5.20
2019-03-25T04:19:46.329Z,4.60
2019-03-25T04:22:14.721Z,6.07
2019-03-25T04:24:43.130Z,5.00
2019-03-25T04:27:11.612Z,5.90
2019-03-25T04:29:40.043Z,5.83
2019-03-25T04:32:08.534Z,6.90
2019-03-25T04:34:37.017Z,6.70
2019-03-25T04:37:05.503Z,5.83
2019-03-25T04:39:33.911Z,6.10
2019-03-25T04:42:02.318Z,6.77
2019-03-25T04:44:30.723Z,6.43
2019-03-25T04:46:59.121Z,6.20
2019-03-25T04:49:27.537Z,6.27
2019-03-25T04:51:55.938Z,6.67
2019-03-25T04:54:24.359Z,5.90
2019-03-25T04:56:52.749Z,5.37
2019-03-25T04:59:21.159Z,5.20
2019-03-25T05:01:49.568Z,5.13
2019-03-25T05:04:17.984Z,4.50
2019-03-25T05:06:46.383Z,4.33
2019-03-25T05:09:14.793Z,4.53
2019-03-25T05:11:43.196Z,5.03
2019-03-25T05:14:11.603Z,4.23
2019-03-25T05:16:40.044Z,3.70
2019-03-25T05:19:08.541Z,4.53
2019-03-25T05:21:36.944Z,3.93
2019-03-25T05:24:05.347Z,3.53
2019-03-25T05:26:33.782Z,3.50
2019-03-25T05:29:02.183Z,4.10
2019-03-25T05:31:30.601Z,2.90
2019-03-25T05:33:59.002Z,3.37
2019-03-25T05:36:27.431Z,3.10
2019-03-25T05:38:55.847Z,3.23
2019-03-25T05:41:24.272Z,3.33
2019-03-25T05:43:52.665Z,3.00
2019-03-25T05:46:21.082Z,3.20
2019-03-25T05:48:49.520Z,3.00
2019-03-25T05:51:17.914Z,3.43
2019-03-25T05:53:46.317Z,3.00
2019-03-25T05:56:14.717Z,3.17
2019-03-25T05:58:43.124Z,2.80
2019-03-25T06:01:11.611Z,3.57
2019-03-25T06:03:40.005Z,3.50
2019-03-25T06:06:08.439Z,2.50
2019-03-25T06:08:36.914Z,3.20
2019-03-25T06:11:05.325Z,3.10
2019-03-25T06:13:33.764Z,2.40
2019-03-25T06:16:02.180Z,3.20
2019-03-25T06:18:30.573Z,3.37
2019-03-25T06:20:58.980Z,3.10
2019-03-25T06:23:27.441Z,2.53
2019-03-25T06:25:55.871Z,2.60
2019-03-25T06:28:24.282Z,3.20
2019-03-25T06:30:52.680Z,2.73
2019-03-25T06:33:21.093Z,3.40
2019-03-25T06:35:49.509Z,3.63
2019-03-25T06:38:17.899Z,2.90
2019-03-25T06:40:46.292Z,4.00
2019-03-25T06:43:14.710Z,3.90
2019-03-25T06:45:43.190Z,3.73
2019-03-25T06:48:11.608Z,4.80
2019-03-25T06:50:39.999Z,3.67
2019-03-25T06:53:08.464Z,3.77
2019-03-25T06:55:36.868Z,4.50
2019-03-25T06:58:05.330Z,5.10
2019-03-25T07:00:33.737Z,3.80
2019-03-25T07:03:02.153Z,3.17
2019-03-25T07:05:30.556Z,4.17
2019-03-25T07:07:58.965Z,4.57
2019-03-25T07:10:35.244Z,5.40
2019-03-25T07:13:04.594Z,4.23
2019-03-25T07:15:33.230Z,3.70
2019-03-25T07:18:01.703Z,3.40
2019-03-25T07:20:30.188Z,4.37
2019-03-25T07:22:58.668Z,4.47
2019-03-25T07:25:27.085Z,4.43
2019-03-25T07:27:55.482Z,4.60
2019-03-25T07:30:23.983Z,4.00
2019-03-25T07:32:52.469Z,3.50
2019-03-25T07:35:22.533Z,4.13
2019-03-25T07:37:50.926Z,3.60
2019-03-25T07:40:19.427Z,3.50
2019-03-25T07:42:47.821Z,4.23
2019-03-25T07:45:16.731Z,4.43
2019-03-25T07:47:45.107Z,4.07
2019-03-25T07:50:13.872Z,3.67
2019-03-25T07:52:42.275Z,3.40
2019-03-25T07:55:10.821Z,4.50
2019-03-25T07:57:47.690Z,3.50
2019-03-25T08:00:14.643Z,5.37
2019-03-25T08:02:43.090Z,3.50
2019-03-25T08:05:11.636Z,3.50
2019-03-25T08:07:40.094Z,4.27
2019-03-25T08:10:09.121Z,3.47
2019-03-25T08:12:37.601Z,3.33
2019-03-25T08:15:07.740Z,3.90
2019-03-25T08:17:36.211Z,4.17
2019-03-25T08:20:07.058Z,3.70
2019-03-25T08:22:35.459Z,4.10
2019-03-25T08:25:05.522Z,4.10
2019-03-25T08:27:33.920Z,3.37
2019-03-25T08:30:02.401Z,3.83
2019-03-25T08:32:30.918Z,3.43
2019-03-25T08:34:59.353Z,4.30
2019-03-25T08:37:27.771Z,3.73
2019-03-25T08:39:56.244Z,4.80
2019-03-25T08:42:24.657Z,4.00
2019-03-25T08:44:53.063Z,4.43
2019-03-25T08:47:21.552Z,3.77
2019-03-25T08:49:49.958Z,4.73
2019-03-25T08:52:18.371Z,3.93
2019-03-25T08:54:46.799Z,4.53
2019-03-25T08:57:15.232Z,3.00
2019-03-25T08:59:43.741Z,3.13
2019-03-25T09:02:12.206Z,3.73
2019-03-25T09:04:40.639Z,4.47
2019-03-25T09:07:09.102Z,3.17
2019-03-25T09:09:37.533Z,3.77
2019-03-25T09:12:05.954Z,4.90
2019-03-25T09:14:34.362Z,4.03
2019-03-25T09:17:02.853Z,2.73
2019-03-25T09:19:31.505Z,3.27
2019-03-25T09:21:59.925Z,3.37
2019-03-25T09:24:28.334Z,2.47
2019-03-25T09:26:56.765Z,2.90
2019-03-25T09:29:26.697Z,2.50
2019-03-25T09:31:55.182Z,2.70
2019-03-25T09:34:23.607Z,1.93
2019-03-25T09:36:52.018Z,3.10
2019-03-25T09:39:20.463Z,2.47
2019-03-25T09:41:48.889Z,3.30
2019-03-25T09:44:17.263Z,2.30
2019-03-25T09:46:45.761Z,2.40
2019-03-25T09:49:14.154Z,2.90
2019-03-25T09:51:42.591Z,2.60
2019-03-25T09:54:11.103Z,2.57
2019-03-25T09:56:39.578Z,1.90
2019-03-25T09:59:08.133Z,2.50
2019-03-25T10:01:36.536Z,3.27
2019-03-25T10:04:04.940Z,2.70
2019-03-25T10:06:33.363Z,2.30
2019-03-25T10:09:01.781Z,2.57
2019-03-25T10:11:30.186Z,2.83
2019-03-25T10:13:58.598Z,2.50
2019-03-25T10:16:26.999Z,2.37
2019-03-25T10:18:55.412Z,3.53
2019-03-25T10:21:23.815Z,3.10
2019-03-25T10:23:52.302Z,2.10
2019-03-25T10:26:20.701Z,3.90
2019-03-25T10:28:49.415Z,1.60
2019-03-25T10:31:17.876Z,1.43
2019-03-25T10:33:46.318Z,1.50
2019-03-25T10:36:14.709Z,1.90
2019-03-25T10:38:43.124Z,1.97
2019-03-25T10:41:11.522Z,1.43
2019-03-25T10:43:39.946Z,2.20
2019-03-25T10:46:08.438Z,1.80
2019-03-25T10:48:36.854Z,2.10
2019-03-25T10:51:05.448Z,2.10
2019-03-25T10:53:33.886Z,2.40
2019-03-25T10:56:02.283Z,3.13
2019-03-25T10:58:30.698Z,2.83
2019-03-25T11:00:59.090Z,2.50
2019-03-25T11:03:27.499Z,2.60
2019-03-25T11:05:55.966Z,2.90
2019-03-25T11:08:24.459Z,2.70
2019-03-25T11:10:52.933Z,2.37
2019-03-25T11:13:21.417Z,2.67
2019-03-25T11:15:49.834Z,2.23
2019-03-25T11:18:18.242Z,3.00
2019-03-25T11:20:46.737Z,3.03
2019-03-25T11:23:15.158Z,3.77
2019-03-25T11:25:43.595Z,2.47
2019-03-25T11:28:12.391Z,2.97
2019-03-25T11:30:55.755Z,2.30
2019-03-25T11:33:24.785Z,2.90
2019-03-25T11:35:53.391Z,2.70
2019-03-25T11:38:21.935Z,1.70
2019-03-25T11:40:50.432Z,2.17
2019-03-25T11:43:18.826Z,1.63
2019-03-25T11:45:47.440Z,2.13
2019-03-25T11:48:15.892Z,1.47
2019-03-25T11:50:44.392Z,1.80
2019-03-25T11:53:12.793Z,2.40
2019-03-25T11:55:41.185Z,2.30
2019-03-25T11:58:09.589Z,2.97
2019-03-25T12:00:37.994Z,3.17
2019-03-25T12:03:06.472Z,3.27
2019-03-25T12:05:34.889Z,3.10
2019-03-25T12:08:03.366Z,2.90
2019-03-25T12:10:31.787Z,3.27
2019-03-25T12:13:00.180Z,3.13
2019-03-25T12:15:28.580Z,3.30
2019-03-25T12:17:56.995Z,3.70
2019-03-25T12:20:25.401Z,2.57
2019-03-25T12:22:53.826Z,2.87
2019-03-25T12:25:22.218Z,2.70
2019-03-25T12:27:50.695Z,2.73
2019-03-25T12:30:19.232Z,2.33
2019-03-25T12:32:47.648Z,2.57
2019-03-25T12:35:16.308Z,2.67
2019-03-25T12:37:44.730Z,2.30
2019-03-25T12:40:13.299Z,2.70
2019-03-25T12:42:41.706Z,2.57
2019-03-25T12:45:10.420Z,2.30
2019-03-25T12:47:38.854Z,3.57
2019-03-25T12:50:08.937Z,2.40
2019-03-25T12:52:37.344Z,3.23
2019-03-25T12:55:06.077Z,2.47
2019-03-25T12:57:34.577Z,1.67
2019-03-25T13:00:04.285Z,1.43
2019-03-25T13:02:32.688Z,1.50
2019-03-25T13:05:01.125Z,1.60
2019-03-25T13:07:29.533Z,1.77
2019-03-25T13:09:57.941Z,2.27
2019-03-25T13:12:26.368Z,2.13
2019-03-25T13:14:54.770Z,2.47
2019-03-25T13:17:23.181Z,2.27
2019-03-25T13:19:51.621Z,2.60
2019-03-25T13:22:20.011Z,2.37
2019-03-25T13:24:48.450Z,2.63
2019-03-25T13:27:16.868Z,2.43
2019-03-25T13:29:52.498Z,2.50
2019-03-25T13:32:15.402Z,2.13
2019-03-25T13:34:43.836Z,2.70
2019-03-25T13:37:12.329Z,2.03
2019-03-25T13:39:40.827Z,2.10
2019-03-25T13:42:09.272Z,2.20
2019-03-25T13:44:37.678Z,2.93
2019-03-25T13:47:06.130Z,2.83
2019-03-25T13:49:34.527Z,2.37
2019-03-25T13:52:03.002Z,1.80
2019-03-25T13:54:31.389Z,2.20
2019-03-25T13:56:59.869Z,2.33
2019-03-25T13:59:28.371Z,2.40
2019-03-25T14:01:56.807Z,2.40
2019-03-25T14:04:25.204Z,2.67
2019-03-25T14:06:53.634Z,2.50
2019-03-25T14:09:22.053Z,2.80
2019-03-25T14:11:50.464Z,2.60
2019-03-25T14:14:18.889Z,2.73
2019-03-25T14:16:47.283Z,2.70
2019-03-25T14:19:15.726Z,2.57
2019-03-25T14:21:44.111Z,2.20
2019-03-25T14:24:12.540Z,2.40
2019-03-25T14:26:40.938Z,1.90
2019-03-25T14:29:09.344Z,2.17
2019-03-25T14:31:37.744Z,3.30
2019-03-25T14:34:06.237Z,2.07
2019-03-25T14:36:34.641Z,2.17
2019-03-25T14:39:03.502Z,3.20
2019-03-25T14:41:31.939Z,2.73
2019-03-25T14:44:00.351Z,2.90
2019-03-25T14:46:28.782Z,2.50
2019-03-25T14:48:57.334Z,2.30
2019-03-25T14:51:25.729Z,2.40
2019-03-25T14:53:54.250Z,2.80
2019-03-25T14:56:22.632Z,3.10
2019-03-25T14:58:51.138Z,3.50
2019-03-25T15:01:19.572Z,3.03
2019-03-25T15:03:48.053Z,3.27
2019-03-25T15:06:16.463Z,3.70
2019-03-25T15:08:44.933Z,3.60
2019-03-25T15:11:13.332Z,3.57
2019-03-25T15:13:41.733Z,4.10
2019-03-25T15:16:10.215Z,3.73
2019-03-25T15:18:38.631Z,3.40
2019-03-25T15:21:07.044Z,2.60
2019-03-25T15:23:35.460Z,3.67
2019-03-25T15:26:03.939Z,3.33
2019-03-25T15:28:32.372Z,3.17
2019-03-25T15:31:00.775Z,2.80
2019-03-25T15:33:29.296Z,4.50
2019-03-25T15:35:57.857Z,2.90
2019-03-25T15:38:26.440Z,3.37
2019-03-25T15:40:54.851Z,3.10
2019-03-25T15:43:23.274Z,3.50
2019-03-25T15:45:52.157Z,3.60
2019-03-25T15:48:20.858Z,3.33
2019-03-25T15:50:49.280Z,2.97
2019-03-25T15:53:17.702Z,3.23
2019-03-25T15:55:46.129Z,3.70
2019-03-25T15:58:21.689Z,4.53
2019-03-25T16:00:47.936Z,3.70
2019-03-25T16:03:14.876Z,3.03
2019-03-25T16:05:43.295Z,2.83
2019-03-25T16:08:11.745Z,2.80
2019-03-25T16:10:40.159Z,3.50
2019-03-25T16:13:08.659Z,3.17
2019-03-25T16:15:42.010Z,3.53
2019-03-25T16:18:12.392Z,3.90
2019-03-25T16:20:40.791Z,2.50
2019-03-25T16:23:09.199Z,3.47
2019-03-25T16:25:37.714Z,3.03
2019-03-25T16:28:06.262Z,3.47
2019-03-25T16:30:34.759Z,2.70
2019-03-25T16:33:03.179Z,2.73
2019-03-25T16:35:31.600Z,4.30
2019-03-25T16:38:00.004Z,4.33
2019-03-25T16:40:28.427Z,3.47
2019-03-25T16:42:56.866Z,2.63
2019-03-25T16:45:25.313Z,3.40
2019-03-25T16:47:53.715Z,3.17
2019-03-25T16:50:22.117Z,3.00
2019-03-25T16:52:50.540Z,3.10
2019-03-25T16:55:18.945Z,4.10
2019-03-25T16:57:47.419Z,2.93
2019-03-25T17:00:26.982Z,2.97
2019-03-25T17:02:46.200Z,2.73
2019-03-25T17:05:14.664Z,2.50
2019-03-25T17:07:43.085Z,2.70
2019-03-25T17:10:12.373Z,2.93
2019-03-25T17:12:40.796Z,2.30
2019-03-25T17:15:09.731Z,2.97
2019-03-25T17:17:38.276Z,2.30
2019-03-25T17:20:07.044Z,2.10
2019-03-25T17:22:35.512Z,1.83
2019-03-25T17:25:07.522Z,1.93
2019-03-25T17:27:36.032Z,1.90
2019-03-25T17:30:09.995Z,2.73
2019-03-25T17:32:38.440Z,2.20
2019-03-25T17:35:07.643Z,3.90
2019-03-25T17:37:36.105Z,4.90
2019-03-25T17:40:07.282Z,2.17
2019-03-25T17:42:35.831Z,2.27
2019-03-25T17:45:06.669Z,2.00
2019-03-25T17:47:35.164Z,2.57
2019-03-25T17:50:05.381Z,4.10
2019-03-25T17:52:33.797Z,2.27
2019-03-25T17:55:02.386Z,2.33
2019-03-25T17:57:30.849Z,2.73
2019-03-25T17:59:59.249Z,2.03
2019-03-25T18:02:27.754Z,2.30
2019-03-25T18:04:56.147Z,1.77
2019-03-25T18:07:24.586Z,2.17
2019-03-25T18:09:53.003Z,2.03
2019-03-25T18:12:21.456Z,1.90
2019-03-25T18:14:49.861Z,2.00
2019-03-25T18:17:18.258Z,1.93
2019-03-25T18:19:46.689Z,2.20
2019-03-25T18:22:15.109Z,2.33
2019-03-25T18:24:43.512Z,2.40
2019-03-25T18:27:11.935Z,3.07
2019-03-25T18:29:40.356Z,2.10
2019-03-25T18:32:08.832Z,4.63
2019-03-25T18:34:37.329Z,7.13
2019-03-25T18:37:05.734Z,13.23
2019-03-25T18:39:34.154Z,3.50
2019-03-25T18:42:02.559Z,2.63
2019-03-25T18:44:30.955Z,2.37
2019-03-25T18:46:59.453Z,2.13
2019-03-25T18:49:27.905Z,7.83
2019-03-25T18:51:56.482Z,2.13
2019-03-25T18:54:24.954Z,2.00
2019-03-25T18:56:53.504Z,2.40
2019-03-25T18:59:22.002Z,2.30
2019-03-25T19:01:54.697Z,2.63
2019-03-25T19:04:20.616Z,1.93
2019-03-25T19:06:49.483Z,3.40
2019-03-25T19:09:17.904Z,2.20
2019-03-25T19:11:46.532Z,2.70
2019-03-25T19:14:14.902Z,1.90
2019-03-25T19:16:43.302Z,2.40
2019-03-25T19:19:11.742Z,2.47
2019-03-25T19:21:40.157Z,2.87
2019-03-25T19:24:08.626Z,2.10
2019-03-25T19:26:42.703Z,2.00
2019-03-25T19:29:11.070Z,2.33
2019-03-25T19:31:41.058Z,2.00
2019-03-25T19:34:09.452Z,1.90
2019-03-25T19:36:37.896Z,2.33
2019-03-25T19:39:07.537Z,2.50
2019-03-25T19:41:39.983Z,2.67
2019-03-25T19:44:08.490Z,2.80
2019-03-25T19:46:36.902Z,2.57
2019-03-25T19:49:05.390Z,2.63
2019-03-25T19:51:33.796Z,2.13
2019-03-25T19:54:02.217Z,2.40
2019-03-25T19:56:30.672Z,3.27
2019-03-25T19:58:59.078Z,2.80
2019-03-25T20:01:30.344Z,2.97
2019-03-25T20:03:58.765Z,3.10
2019-03-25T20:06:27.154Z,2.60
2019-03-25T20:08:55.640Z,3.00
2019-03-25T20:11:24.617Z,3.90
2019-03-25T20:13:52.994Z,3.60
2019-03-25T20:16:21.456Z,3.57
2019-03-25T20:18:58.628Z,4.73
2019-03-25T20:21:28.667Z,4.67
2019-03-25T20:23:57.104Z,3.93
2019-03-25T20:26:25.658Z,4.10
2019-03-25T20:28:54.130Z,4.70
2019-03-25T20:31:22.682Z,3.80
2019-03-25T20:33:51.118Z,4.23
2019-03-25T20:36:19.605Z,3.50
2019-03-25T20:38:49.405Z,4.70
2019-03-25T20:41:18.196Z,3.30
2019-03-25T20:43:46.648Z,4.60
2019-03-25T20:46:15.090Z,3.97
2019-03-25T20:48:43.446Z,4.03
2019-03-25T20:51:11.929Z,3.70
2019-03-25T20:53:40.346Z,3.93
2019-03-25T20:56:08.770Z,4.60
2019-03-25T20:58:37.250Z,4.17
2019-03-25T21:01:05.873Z,3.80
2019-03-25T21:03:34.306Z,4.03
2019-03-25T21:06:02.681Z,3.10
2019-03-25T21:08:31.177Z,4.33
2019-03-25T21:10:59.613Z,3.43
2019-03-25T21:13:28.049Z,4.17
2019-03-25T21:15:56.545Z,3.50
2019-03-25T21:18:24.986Z,3.20
2019-03-25T21:20:53.526Z,6.43
2019-03-25T21:23:22.034Z,2.97
2019-03-25T21:25:50.502Z,3.00
2019-03-25T21:28:18.936Z,3.10
2019-03-25T21:30:48.473Z,3.50
2019-03-25T21:33:17.250Z,3.40
2019-03-25T21:35:45.698Z,3.87
2019-03-25T21:38:14.189Z,4.87
2019-03-25T21:40:42.697Z,4.20
2019-03-25T21:43:11.092Z,3.30
2019-03-25T21:45:39.552Z,3.37
2019-03-25T21:48:07.988Z,4.33
2019-03-25T21:50:37.377Z,4.73
2019-03-25T21:53:07.465Z,4.03
2019-03-25T21:55:35.836Z,3.80
2019-03-25T21:58:04.373Z,4.80
2019-03-25T22:00:32.779Z,3.70
2019-03-25T22:03:11.451Z,3.37
2019-03-25T22:05:31.550Z,3.70
2019-03-25T22:07:59.992Z,3.40
2019-03-25T22:10:28.405Z,4.00
2019-03-25T22:12:56.957Z,6.90
2019-03-25T22:15:25.419Z,4.47
2019-03-25T22:17:53.820Z,3.73
2019-03-25T22:20:22.228Z,3.37
2019-03-25T22:22:50.630Z,4.20
2019-03-25T22:25:19.038Z,3.50
2019-03-25T22:27:47.497Z,3.77
2019-03-25T22:30:15.993Z,3.20
2019-03-25T22:32:44.482Z,3.53
2019-03-25T22:35:13.039Z,3.40
2019-03-25T22:37:41.540Z,4.03
2019-03-25T22:40:10.148Z,3.67
2019-03-25T22:42:38.574Z,3.50
2019-03-25T22:45:07.719Z,4.03
2019-03-25T22:47:36.579Z,3.87
2019-03-25T22:50:07.593Z,4.73
2019-03-25T22:52:36.017Z,4.30
2019-03-25T22:55:06.958Z,3.80
2019-03-25T22:57:35.364Z,3.53
2019-03-25T23:00:05.158Z,4.10
2019-03-25T23:02:33.550Z,4.03
2019-03-25T23:05:01.948Z,4.23
2019-03-25T23:07:30.385Z,3.60
2019-03-25T23:09:59.011Z,3.97
2019-03-25T23:12:27.598Z,3.97
2019-03-25T23:14:56.031Z,4.37
2019-03-25T23:17:24.432Z,3.50
2019-03-25T23:19:52.842Z,3.83
2019-03-25T23:22:21.253Z,3.67
2019-03-25T23:24:49.650Z,4.03
2019-03-25T23:27:18.083Z,5.43
2019-03-25T23:29:46.493Z,4.50
2019-03-25T23:32:14.894Z,4.73
2019-03-25T23:34:43.324Z,5.10
2019-03-25T23:37:11.727Z,4.67
2019-03-25T23:39:40.115Z,5.33
2019-03-25T23:42:08.524Z,4.27
2019-03-25T23:44:36.916Z,5.20
2019-03-25T23:47:05.355Z,3.77
2019-03-25T23:49:33.758Z,5.30
2019-03-25T23:52:02.163Z,5.23
2019-03-25T23:54:30.589Z,5.53
2019-03-25T23:56:59.069Z,3.80
2019-03-25T23:59:27.477Z,4.50
